sensor_id;sensor_type;location;lat;lon;timestamp;pressure;altitude;pressure_sealevel;temperature;humidity
58991;BME280;44781;53.444;14.476;2023-05-27T00:00:12;102785.58;;;7.03;66.05
58991;BME280;44781;53.444;14.476;2023-05-27T00:03:01;102782.41;;;6.96;66.26
58991;BME280;44781;53.444;14.476;2023-05-27T00:05:28;102781.66;;;6.92;66.33
58991;BME280;44781;53.444;14.476;2023-05-27T00:07:55;102783.50;;;6.90;66.66
58991;BME280;44781;53.444;14.476;2023-05-27T00:10:22;102785.67;;;6.87;66.79
58991;BME280;44781;53.444;14.476;2023-05-27T00:12:49;102783.80;;;6.86;66.65
58991;BME280;44781;53.444;14.476;2023-05-27T00:15:16;102786.83;;;6.84;66.54
58991;BME280;44781;53.444;14.476;2023-05-27T00:17:47;102782.16;;;6.81;66.55
58991;BME280;44781;53.444;14.476;2023-05-27T00:20:14;102782.27;;;6.77;66.50
58991;BME280;44781;53.444;14.476;2023-05-27T00:22:42;102780.48;;;6.72;66.51
58991;BME280;44781;53.444;14.476;2023-05-27T00:25:09;102778.89;;;6.66;66.40
58991;BME280;44781;53.444;14.476;2023-05-27T00:27:36;102778.01;;;6.60;66.28
58991;BME280;44781;53.444;14.476;2023-05-27T00:30:03;102777.98;;;6.54;66.39
58991;BME280;44781;53.444;14.476;2023-05-27T00:32:31;102779.88;;;6.49;66.74
58991;BME280;44781;53.444;14.476;2023-05-27T00:34:58;102779.43;;;6.46;66.85
58991;BME280;44781;53.444;14.476;2023-05-27T00:37:25;102777.02;;;6.44;66.99
58991;BME280;44781;53.444;14.476;2023-05-27T00:39:53;102777.39;;;6.43;67.27
58991;BME280;44781;53.444;14.476;2023-05-27T00:42:20;102779.52;;;6.42;67.42
58991;BME280;44781;53.444;14.476;2023-05-27T00:44:47;102781.33;;;6.40;67.46
58991;BME280;44781;53.444;14.476;2023-05-27T00:47:14;102785.95;;;6.38;67.48
58991;BME280;44781;53.444;14.476;2023-05-27T00:49:43;102783.42;;;6.35;67.37
58991;BME280;44781;53.444;14.476;2023-05-27T00:52:11;102784.59;;;6.30;67.25
58991;BME280;44781;53.444;14.476;2023-05-27T00:54:45;102789.45;;;6.24;67.23
58991;BME280;44781;53.444;14.476;2023-05-27T00:57:13;102792.56;;;6.20;67.49
58991;BME280;44781;53.444;14.476;2023-05-27T00:59:41;102793.23;;;6.15;67.64
58991;BME280;44781;53.444;14.476;2023-05-27T01:02:08;102791.20;;;6.11;67.52
58991;BME280;44781;53.444;14.476;2023-05-27T01:04:37;102791.98;;;6.08;67.54
58991;BME280;44781;53.444;14.476;2023-05-27T01:10:15;102790.66;;;6.05;67.40
58991;BME280;44781;53.444;14.476;2023-05-27T01:12:59;102788.80;;;6.02;67.40
58991;BME280;44781;53.444;14.476;2023-05-27T01:15:28;102784.30;;;6.00;67.44
58991;BME280;44781;53.444;14.476;2023-05-27T01:18:01;102784.05;;;5.94;67.27
58991;BME280;44781;53.444;14.476;2023-05-27T01:20:33;102791.64;;;5.92;67.33
58991;BME280;44781;53.444;14.476;2023-05-27T01:23:01;102792.98;;;5.87;67.58
58991;BME280;44781;53.444;14.476;2023-05-27T01:25:30;102796.08;;;5.82;67.74
58991;BME280;44781;53.444;14.476;2023-05-27T01:27:57;102791.42;;;5.79;67.94
58991;BME280;44781;53.444;14.476;2023-05-27T01:30:24;102795.35;;;5.76;68.14
58991;BME280;44781;53.444;14.476;2023-05-27T01:33:07;102791.90;;;5.73;68.31
58991;BME280;44781;53.444;14.476;2023-05-27T01:38:14;102789.59;;;5.75;68.64
58991;BME280;44781;53.444;14.476;2023-05-27T01:40:44;102786.41;;;5.76;68.58
58991;BME280;44781;53.444;14.476;2023-05-27T01:43:12;102782.91;;;5.76;68.62
58991;BME280;44781;53.444;14.476;2023-05-27T01:45:48;102781.02;;;5.73;68.43
58991;BME280;44781;53.444;14.476;2023-05-27T01:48:15;102781.82;;;5.69;68.23
58991;BME280;44781;53.444;14.476;2023-05-27T01:50:46;102785.59;;;5.65;68.32
58991;BME280;44781;53.444;14.476;2023-05-27T01:53:13;102781.85;;;5.61;68.21
58991;BME280;44781;53.444;14.476;2023-05-27T01:55:42;102784.59;;;5.56;68.06
58991;BME280;44781;53.444;14.476;2023-05-27T01:58:09;102780.35;;;5.49;68.04
58991;BME280;44781;53.444;14.476;2023-05-27T02:00:36;102775.23;;;5.44;68.13
58991;BME280;44781;53.444;14.476;2023-05-27T02:03:03;102777.92;;;5.41;68.39
58991;BME280;44781;53.444;14.476;2023-05-27T02:05:30;102774.78;;;5.40;68.63
58991;BME280;44781;53.444;14.476;2023-05-27T02:07:57;102777.61;;;5.39;68.96
58991;BME280;44781;53.444;14.476;2023-05-27T02:10:26;102785.48;;;5.40;69.00
58991;BME280;44781;53.444;14.476;2023-05-27T02:12:56;102779.70;;;5.40;68.91
58991;BME280;44781;53.444;14.476;2023-05-27T02:15:23;102779.04;;;5.38;69.04
58991;BME280;44781;53.444;14.476;2023-05-27T02:17:51;102780.48;;;5.35;68.95
58991;BME280;44781;53.444;14.476;2023-05-27T02:20:22;102776.52;;;5.32;68.76
58991;BME280;44781;53.444;14.476;2023-05-27T02:22:50;102777.16;;;5.27;68.44
58991;BME280;44781;53.444;14.476;2023-05-27T02:25:17;102777.46;;;5.22;68.39
58991;BME280;44781;53.444;14.476;2023-05-27T02:27:44;102778.11;;;5.15;68.20
58991;BME280;44781;53.444;14.476;2023-05-27T02:30:16;102771.26;;;5.08;68.07
58991;BME280;44781;53.444;14.476;2023-05-27T02:32:43;102769.25;;;5.04;68.06
58991;BME280;44781;53.444;14.476;2023-05-27T02:35:13;102776.65;;;5.01;68.42
58991;BME280;44781;53.444;14.476;2023-05-27T02:37:41;102777.38;;;5.00;68.60
58991;BME280;44781;53.444;14.476;2023-05-27T02:40:09;102778.80;;;4.99;68.59
58991;BME280;44781;53.444;14.476;2023-05-27T02:42:38;102777.10;;;4.97;68.59
58991;BME280;44781;53.444;14.476;2023-05-27T02:45:14;102783.77;;;4.95;68.72
58991;BME280;44781;53.444;14.476;2023-05-27T02:47:41;102796.98;;;4.93;68.93
58991;BME280;44781;53.444;14.476;2023-05-27T02:50:09;102794.39;;;4.90;69.04
58991;BME280;44781;53.444;14.476;2023-05-27T02:52:36;102787.10;;;4.86;69.01
58991;BME280;44781;53.444;14.476;2023-05-27T02:55:04;102783.52;;;4.82;69.26
58991;BME280;44781;53.444;14.476;2023-05-27T02:57:32;102785.16;;;4.79;69.22
58991;BME280;44781;53.444;14.476;2023-05-27T02:59:59;102788.02;;;4.75;69.14
58991;BME280;44781;53.444;14.476;2023-05-27T03:02:28;102790.54;;;4.72;69.14
58991;BME280;44781;53.444;14.476;2023-05-27T03:04:56;102789.14;;;4.72;69.21
58991;BME280;44781;53.444;14.476;2023-05-27T03:07:24;102787.04;;;4.72;69.25
58991;BME280;44781;53.444;14.476;2023-05-27T03:09:51;102788.77;;;4.72;69.55
58991;BME280;44781;53.444;14.476;2023-05-27T03:12:18;102789.47;;;4.73;69.94
58991;BME280;44781;53.444;14.476;2023-05-27T03:14:45;102788.33;;;4.69;69.82
58991;BME280;44781;53.444;14.476;2023-05-27T03:17:12;102794.55;;;4.73;69.85
58991;BME280;44781;53.444;14.476;2023-05-27T03:19:39;102797.73;;;4.72;69.97
58991;BME280;44781;53.444;14.476;2023-05-27T03:22:06;102793.48;;;4.65;69.85
58991;BME280;44781;53.444;14.476;2023-05-27T03:24:33;102801.83;;;4.68;70.17
58991;BME280;44781;53.444;14.476;2023-05-27T03:27:02;102801.67;;;4.66;70.22
58991;BME280;44781;53.444;14.476;2023-05-27T03:29:31;102801.00;;;4.65;70.54
58991;BME280;44781;53.444;14.476;2023-05-27T03:31:58;102800.80;;;4.67;70.77
58991;BME280;44781;53.444;14.476;2023-05-27T03:34:26;102801.11;;;4.68;70.82
58991;BME280;44781;53.444;14.476;2023-05-27T03:36:54;102803.35;;;4.71;71.00
58991;BME280;44781;53.444;14.476;2023-05-27T03:39:33;102804.85;;;4.74;71.26
58991;BME280;44781;53.444;14.476;2023-05-27T03:42:01;102805.34;;;4.76;71.29
58991;BME280;44781;53.444;14.476;2023-05-27T03:44:28;102803.22;;;4.78;71.27
58991;BME280;44781;53.444;14.476;2023-05-27T03:46:55;102800.59;;;4.78;71.53
58991;BME280;44781;53.444;14.476;2023-05-27T03:49:22;102798.80;;;4.80;71.62
58991;BME280;44781;53.444;14.476;2023-05-27T03:51:49;102801.91;;;4.82;71.86
58991;BME280;44781;53.444;14.476;2023-05-27T03:54:16;102797.84;;;4.85;72.15
58991;BME280;44781;53.444;14.476;2023-05-27T03:56:46;102798.63;;;4.88;72.66
58991;BME280;44781;53.444;14.476;2023-05-27T03:59:13;102800.29;;;4.93;73.12
58991;BME280;44781;53.444;14.476;2023-05-27T04:01:43;102802.49;;;4.97;73.77
58991;BME280;44781;53.444;14.476;2023-05-27T04:04:10;102810.16;;;5.07;74.18
58991;BME280;44781;53.444;14.476;2023-05-27T04:06:41;102807.70;;;5.17;74.66
58991;BME280;44781;53.444;14.476;2023-05-27T04:09:08;102808.92;;;5.25;74.67
58991;BME280;44781;53.444;14.476;2023-05-27T04:11:35;102810.14;;;5.34;75.07
58991;BME280;44781;53.444;14.476;2023-05-27T04:14:03;102811.17;;;5.43;75.34
58991;BME280;44781;53.444;14.476;2023-05-27T04:16:33;102807.49;;;5.51;75.66
58991;BME280;44781;53.444;14.476;2023-05-27T04:19:02;102809.77;;;5.59;75.81
58991;BME280;44781;53.444;14.476;2023-05-27T04:21:29;102807.48;;;5.67;75.94
58991;BME280;44781;53.444;14.476;2023-05-27T04:23:57;102811.47;;;5.76;75.99
58991;BME280;44781;53.444;14.476;2023-05-27T04:26:24;102813.15;;;5.87;76.21
58991;BME280;44781;53.444;14.476;2023-05-27T04:28:54;102820.12;;;5.98;76.29
58991;BME280;44781;53.444;14.476;2023-05-27T04:31:22;102821.80;;;6.08;76.39
58991;BME280;44781;53.444;14.476;2023-05-27T04:33:54;102821.04;;;6.18;76.54
58991;BME280;44781;53.444;14.476;2023-05-27T04:36:21;102821.89;;;6.26;76.91
58991;BME280;44781;53.444;14.476;2023-05-27T04:39:03;102821.69;;;6.34;77.12
58991;BME280;44781;53.444;14.476;2023-05-27T04:41:33;102822.35;;;6.43;77.09
58991;BME280;44781;53.444;14.476;2023-05-27T04:44:09;102815.62;;;6.52;77.46
58991;BME280;44781;53.444;14.476;2023-05-27T04:46:41;102815.84;;;6.63;77.83
58991;BME280;44781;53.444;14.476;2023-05-27T04:49:10;102814.61;;;6.76;78.28
58991;BME280;44781;53.444;14.476;2023-05-27T04:51:38;102813.39;;;6.89;78.53
58991;BME280;44781;53.444;14.476;2023-05-27T04:54:06;102809.02;;;7.00;78.75
58991;BME280;44781;53.444;14.476;2023-05-27T04:56:35;102811.30;;;7.13;78.82
58991;BME280;44781;53.444;14.476;2023-05-27T04:59:03;102810.98;;;7.24;78.88
58991;BME280;44781;53.444;14.476;2023-05-27T05:01:33;102809.44;;;7.34;79.04
58991;BME280;44781;53.444;14.476;2023-05-27T05:04:24;102811.35;;;7.47;79.29
58991;BME280;44781;53.444;14.476;2023-05-27T05:06:55;102815.40;;;7.59;79.31
58991;BME280;44781;53.444;14.476;2023-05-27T05:09:22;102814.30;;;7.71;79.64
58991;BME280;44781;53.444;14.476;2023-05-27T05:11:51;102810.13;;;7.86;79.93
58991;BME280;44781;53.444;14.476;2023-05-27T05:14:18;102809.02;;;7.99;79.93
58991;BME280;44781;53.444;14.476;2023-05-27T05:16:45;102805.61;;;8.12;80.08
58991;BME280;44781;53.444;14.476;2023-05-27T05:19:14;102803.13;;;8.23;79.98
58991;BME280;44781;53.444;14.476;2023-05-27T05:21:41;102801.17;;;8.34;79.97
58991;BME280;44781;53.444;14.476;2023-05-27T05:24:11;102806.80;;;8.45;80.02
58991;BME280;44781;53.444;14.476;2023-05-27T05:26:39;102803.61;;;8.56;80.22
58991;BME280;44781;53.444;14.476;2023-05-27T05:29:20;102803.83;;;8.70;80.13
58991;BME280;44781;53.444;14.476;2023-05-27T05:31:47;102806.19;;;8.83;80.52
58991;BME280;44781;53.444;14.476;2023-05-27T05:34:15;102805.89;;;8.96;80.49
58991;BME280;44781;53.444;14.476;2023-05-27T05:36:45;102798.93;;;9.08;80.37
58991;BME280;44781;53.444;14.476;2023-05-27T05:39:12;102794.63;;;9.19;80.42
58991;BME280;44781;53.444;14.476;2023-05-27T05:41:43;102802.34;;;9.30;80.47
58991;BME280;44781;53.444;14.476;2023-05-27T05:44:10;102800.52;;;9.40;80.31
58991;BME280;44781;53.444;14.476;2023-05-27T05:46:38;102797.80;;;9.51;80.35
58991;BME280;44781;53.444;14.476;2023-05-27T05:49:07;102794.85;;;9.63;80.30
58991;BME280;44781;53.444;14.476;2023-05-27T05:51:39;102796.45;;;9.76;80.36
58991;BME280;44781;53.444;14.476;2023-05-27T05:54:07;102796.30;;;9.89;80.11
58991;BME280;44781;53.444;14.476;2023-05-27T05:56:37;102796.15;;;10.01;80.00
58991;BME280;44781;53.444;14.476;2023-05-27T05:59:05;102798.15;;;10.13;79.75
58991;BME280;44781;53.444;14.476;2023-05-27T06:01:33;102797.36;;;10.23;79.73
58991;BME280;44781;53.444;14.476;2023-05-27T06:04:01;102797.55;;;10.32;79.41
58991;BME280;44781;53.444;14.476;2023-05-27T06:06:35;102799.52;;;10.39;79.00
58991;BME280;44781;53.444;14.476;2023-05-27T06:09:19;102803.20;;;10.48;78.92
58991;BME280;44781;53.444;14.476;2023-05-27T06:11:46;102800.49;;;10.58;78.84
58991;BME280;44781;53.444;14.476;2023-05-27T06:14:15;102803.54;;;10.69;78.59
58991;BME280;44781;53.444;14.476;2023-05-27T06:16:44;102807.45;;;10.80;78.65
58991;BME280;44781;53.444;14.476;2023-05-27T06:19:14;102809.58;;;10.92;78.29
58991;BME280;44781;53.444;14.476;2023-05-27T06:21:41;102813.63;;;11.04;78.24
58991;BME280;44781;53.444;14.476;2023-05-27T06:24:40;102814.37;;;11.15;78.17
58991;BME280;44781;53.444;14.476;2023-05-27T06:27:22;102814.46;;;11.25;77.56
58991;BME280;44781;53.444;14.476;2023-05-27T06:29:51;102814.30;;;11.32;77.23
58991;BME280;44781;53.444;14.476;2023-05-27T06:32:27;102818.54;;;11.40;76.67
58991;BME280;44781;53.444;14.476;2023-05-27T06:34:54;102818.88;;;11.48;76.24
58991;BME280;44781;53.444;14.476;2023-05-27T06:37:21;102815.66;;;11.56;75.84
58991;BME280;44781;53.444;14.476;2023-05-27T06:39:48;102817.13;;;11.66;75.47
58991;BME280;44781;53.444;14.476;2023-05-27T06:42:15;102812.62;;;11.75;74.88
58991;BME280;44781;53.444;14.476;2023-05-27T06:44:56;102808.94;;;11.86;74.55
58991;BME280;44781;53.444;14.476;2023-05-27T06:47:26;102804.97;;;11.95;74.13
58991;BME280;44781;53.444;14.476;2023-05-27T06:49:53;102802.94;;;12.04;73.94
58991;BME280;44781;53.444;14.476;2023-05-27T06:52:21;102804.69;;;12.11;73.35
58991;BME280;44781;53.444;14.476;2023-05-27T06:55:08;102803.60;;;12.19;72.68
58991;BME280;44781;53.444;14.476;2023-05-27T06:57:58;102798.63;;;12.26;71.97
58991;BME280;44781;53.444;14.476;2023-05-27T07:00:45;102799.80;;;12.34;71.14
58991;BME280;44781;53.444;14.476;2023-05-27T07:03:41;102799.09;;;12.41;70.33
58991;BME280;44781;53.444;14.476;2023-05-27T07:06:13;102794.83;;;12.48;69.88
58991;BME280;44781;53.444;14.476;2023-05-27T07:08:48;102789.87;;;12.55;69.09
58991;BME280;44781;53.444;14.476;2023-05-27T07:11:20;102788.27;;;12.62;68.74
58991;BME280;44781;53.444;14.476;2023-05-27T07:13:48;102794.44;;;12.70;68.22
58991;BME280;44781;53.444;14.476;2023-05-27T07:16:18;102796.96;;;12.75;67.60
58991;BME280;44781;53.444;14.476;2023-05-27T07:18:46;102795.91;;;12.81;67.14
58991;BME280;44781;53.444;14.476;2023-05-27T07:21:13;102789.23;;;12.87;66.86
58991;BME280;44781;53.444;14.476;2023-05-27T07:23:41;102791.91;;;12.93;66.49
58991;BME280;44781;53.444;14.476;2023-05-27T07:26:20;102791.55;;;13.00;66.07
58991;BME280;44781;53.444;14.476;2023-05-27T07:28:47;102791.25;;;13.06;65.98
58991;BME280;44781;53.444;14.476;2023-05-27T07:31:24;102786.85;;;13.12;65.58
58991;BME280;44781;53.444;14.476;2023-05-27T07:33:58;102784.89;;;13.18;65.20
58991;BME280;44781;53.444;14.476;2023-05-27T07:36:28;102785.40;;;13.25;64.71
58991;BME280;44781;53.444;14.476;2023-05-27T07:39:03;102786.13;;;13.32;64.50
58991;BME280;44781;53.444;14.476;2023-05-27T07:41:30;102785.95;;;13.38;64.16
58991;BME280;44781;53.444;14.476;2023-05-27T07:43:58;102790.22;;;13.45;63.49
58991;BME280;44781;53.444;14.476;2023-05-27T07:46:28;102789.52;;;13.51;63.31
58991;BME280;44781;53.444;14.476;2023-05-27T07:48:57;102792.36;;;13.57;62.69
58991;BME280;44781;53.444;14.476;2023-05-27T07:51:24;102795.52;;;13.64;62.44
58991;BME280;44781;53.444;14.476;2023-05-27T07:53:54;102796.02;;;13.71;62.06
58991;BME280;44781;53.444;14.476;2023-05-27T07:56:25;102797.77;;;13.77;61.51
58991;BME280;44781;53.444;14.476;2023-05-27T07:58:54;102785.80;;;13.79;61.05
58991;BME280;44781;53.444;14.476;2023-05-27T08:01:22;102786.59;;;13.90;60.82
58991;BME280;44781;53.444;14.476;2023-05-27T08:03:52;102784.08;;;13.96;60.38
58991;BME280;44781;53.444;14.476;2023-05-27T08:06:37;102782.38;;;14.04;60.07
58991;BME280;44781;53.444;14.476;2023-05-27T08:09:19;102781.75;;;14.12;59.58
58991;BME280;44781;53.444;14.476;2023-05-27T08:12:17;102781.27;;;14.20;59.18
58991;BME280;44781;53.444;14.476;2023-05-27T08:15:00;102778.66;;;14.28;58.53
58991;BME280;44781;53.444;14.476;2023-05-27T08:17:41;102778.39;;;14.35;58.24
58991;BME280;44781;53.444;14.476;2023-05-27T08:20:23;102772.95;;;14.43;57.82
58991;BME280;44781;53.444;14.476;2023-05-27T08:23:10;102768.17;;;14.51;57.70
58991;BME280;44781;53.444;14.476;2023-05-27T08:25:59;102767.27;;;14.58;56.98
58991;BME280;44781;53.444;14.476;2023-05-27T08:28:51;102770.88;;;14.66;55.89
58991;BME280;44781;53.444;14.476;2023-05-27T08:31:39;102774.05;;;14.75;55.33
58991;BME280;44781;53.444;14.476;2023-05-27T08:34:07;102772.71;;;14.82;55.06
58991;BME280;44781;53.444;14.476;2023-05-27T08:36:39;102770.80;;;14.90;54.83
58991;BME280;44781;53.444;14.476;2023-05-27T08:39:07;102770.85;;;14.98;54.54
58991;BME280;44781;53.444;14.476;2023-05-27T08:41:43;102766.75;;;15.07;54.60
58991;BME280;44781;53.444;14.476;2023-05-27T08:44:10;102761.92;;;15.15;54.34
58991;BME280;44781;53.444;14.476;2023-05-27T08:46:40;102764.04;;;15.24;54.30
58991;BME280;44781;53.444;14.476;2023-05-27T08:49:10;102765.69;;;15.34;54.11
58991;BME280;44781;53.444;14.476;2023-05-27T08:51:38;102761.73;;;15.43;53.63
58991;BME280;44781;53.444;14.476;2023-05-27T08:54:08;102754.23;;;15.52;53.25
58991;BME280;44781;53.444;14.476;2023-05-27T08:56:37;102751.58;;;15.60;53.04
58991;BME280;44781;53.444;14.476;2023-05-27T08:59:09;102744.38;;;15.69;52.87
58991;BME280;44781;53.444;14.476;2023-05-27T09:01:43;102743.63;;;15.78;52.53
58991;BME280;44781;53.444;14.476;2023-05-27T09:04:24;102738.61;;;15.86;52.34
58991;BME280;44781;53.444;14.476;2023-05-27T09:06:52;102735.91;;;15.94;51.91
58991;BME280;44781;53.444;14.476;2023-05-27T09:09:22;102735.19;;;16.03;51.32
58991;BME280;44781;53.444;14.476;2023-05-27T09:11:49;102736.08;;;16.10;51.17
58991;BME280;44781;53.444;14.476;2023-05-27T09:14:20;102732.86;;;16.19;51.01
58991;BME280;44781;53.444;14.476;2023-05-27T09:16:50;102730.47;;;16.28;50.83
58991;BME280;44781;53.444;14.476;2023-05-27T09:19:20;102731.65;;;16.36;50.55
58991;BME280;44781;53.444;14.476;2023-05-27T09:21:52;102729.23;;;16.45;50.34
58991;BME280;44781;53.444;14.476;2023-05-27T09:25:00;102723.38;;;16.55;50.12
58991;BME280;44781;53.444;14.476;2023-05-27T09:27:53;102727.98;;;16.66;49.88
58991;BME280;44781;53.444;14.476;2023-05-27T09:30:24;102726.78;;;16.77;49.36
58991;BME280;44781;53.444;14.476;2023-05-27T09:33:01;102728.12;;;16.86;48.74
58991;BME280;44781;53.444;14.476;2023-05-27T09:35:37;102725.09;;;16.96;48.38
58991;BME280;44781;53.444;14.476;2023-05-27T09:38:17;102725.60;;;17.07;48.00
58991;BME280;44781;53.444;14.476;2023-05-27T09:40:45;102720.24;;;17.17;47.17
58991;BME280;44781;53.444;14.476;2023-05-27T09:43:14;102717.81;;;17.25;46.45
58991;BME280;44781;53.444;14.476;2023-05-27T09:45:51;102719.48;;;17.34;46.14
58991;BME280;44781;53.444;14.476;2023-05-27T09:48:21;102715.46;;;17.43;45.63
58991;BME280;44781;53.444;14.476;2023-05-27T09:51:20;102718.02;;;17.51;45.18
58991;BME280;44781;53.444;14.476;2023-05-27T09:53:48;102716.62;;;17.61;44.74
58991;BME280;44781;53.444;14.476;2023-05-27T09:56:18;102716.91;;;17.69;44.35
58991;BME280;44781;53.444;14.476;2023-05-27T09:58:47;102711.52;;;17.76;43.93
58991;BME280;44781;53.444;14.476;2023-05-27T10:01:21;102709.38;;;17.84;43.55
58991;BME280;44781;53.444;14.476;2023-05-27T10:03:49;102706.35;;;17.90;43.13
58991;BME280;44781;53.444;14.476;2023-05-27T10:06:18;102704.35;;;17.96;42.59
58991;BME280;44781;53.444;14.476;2023-05-27T10:08:46;102700.42;;;18.03;42.50
58991;BME280;44781;53.444;14.476;2023-05-27T10:11:17;102694.63;;;18.08;42.31
58991;BME280;44781;53.444;14.476;2023-05-27T10:13:48;102689.73;;;18.14;42.32
58991;BME280;44781;53.444;14.476;2023-05-27T10:16:20;102690.20;;;18.22;41.95
58991;BME280;44781;53.444;14.476;2023-05-27T10:18:59;102689.60;;;18.29;41.84
58991;BME280;44781;53.444;14.476;2023-05-27T10:21:29;102688.85;;;18.38;42.10
58991;BME280;44781;53.444;14.476;2023-05-27T10:23:59;102690.77;;;18.48;42.51
58991;BME280;44781;53.444;14.476;2023-05-27T10:26:47;102690.17;;;18.60;42.44
58991;BME280;44781;53.444;14.476;2023-05-27T10:29:16;102686.23;;;18.69;42.12
58991;BME280;44781;53.444;14.476;2023-05-27T10:32:00;102686.85;;;18.77;42.19
58991;BME280;44781;53.444;14.476;2023-05-27T10:34:35;102685.96;;;18.84;42.21
58991;BME280;44781;53.444;14.476;2023-05-27T10:37:03;102686.83;;;18.89;42.04
58991;BME280;44781;53.444;14.476;2023-05-27T10:39:32;102687.97;;;18.93;42.26
58991;BME280;44781;53.444;14.476;2023-05-27T10:42:00;102689.52;;;18.98;42.13
58991;BME280;44781;53.444;14.476;2023-05-27T10:44:29;102684.80;;;19.03;41.67
58991;BME280;44781;53.444;14.476;2023-05-27T10:49:44;102679.33;;;19.15;41.45
58991;BME280;44781;53.444;14.476;2023-05-27T10:52:15;102680.98;;;19.21;41.64
58991;BME280;44781;53.444;14.476;2023-05-27T10:54:44;102672.45;;;19.23;41.39
58991;BME280;44781;53.444;14.476;2023-05-27T10:57:16;102678.10;;;19.30;41.02
58991;BME280;44781;53.444;14.476;2023-05-27T10:59:54;102672.45;;;19.36;41.35
58991;BME280;44781;53.444;14.476;2023-05-27T11:02:29;102660.31;;;19.43;41.59
58991;BME280;44781;53.444;14.476;2023-05-27T11:05:08;102660.05;;;19.53;41.53
58991;BME280;44781;53.444;14.476;2023-05-27T11:07:39;102654.52;;;19.63;41.31
58991;BME280;44781;53.444;14.476;2023-05-27T11:10:08;102644.80;;;19.73;41.38
58991;BME280;44781;53.444;14.476;2023-05-27T11:12:36;102641.55;;;19.81;40.98
58991;BME280;44781;53.444;14.476;2023-05-27T11:15:04;102640.81;;;19.90;40.69
58991;BME280;44781;53.444;14.476;2023-05-27T11:17:31;102644.67;;;19.99;40.19
58991;BME280;44781;53.444;14.476;2023-05-27T11:20:01;102643.19;;;20.06;39.89
58991;BME280;44781;53.444;14.476;2023-05-27T11:22:32;102641.14;;;20.15;39.90
58991;BME280;44781;53.444;14.476;2023-05-27T11:25:02;102644.07;;;20.25;39.34
58991;BME280;44781;53.444;14.476;2023-05-27T11:27:34;102638.95;;;20.34;39.26
58991;BME280;44781;53.444;14.476;2023-05-27T11:30:10;102636.24;;;20.44;39.53
58991;BME280;44781;53.444;14.476;2023-05-27T11:32:42;102634.55;;;20.55;39.88
58991;BME280;44781;53.444;14.476;2023-05-27T11:35:16;102620.80;;;20.57;39.22
58991;BME280;44781;53.444;14.476;2023-05-27T11:37:51;102628.73;;;20.71;38.68
58991;BME280;44781;53.444;14.476;2023-05-27T11:40:35;102627.41;;;20.75;38.38
58991;BME280;44781;53.444;14.476;2023-05-27T11:43:09;102625.52;;;20.80;38.13
58991;BME280;44781;53.444;14.476;2023-05-27T11:46:06;102624.02;;;20.87;38.14
58991;BME280;44781;53.444;14.476;2023-05-27T11:49:25;102622.34;;;20.96;38.02
58991;BME280;44781;53.444;14.476;2023-05-27T11:52:45;102609.13;;;21.04;37.92
58991;BME280;44781;53.444;14.476;2023-05-27T11:55:34;102608.30;;;21.12;37.36
58991;BME280;44781;53.444;14.476;2023-05-27T11:58:29;102592.87;;;21.11;37.50
58991;BME280;44781;53.444;14.476;2023-05-27T12:01:48;102601.91;;;21.26;37.29
58991;BME280;44781;53.444;14.476;2023-05-27T12:04:28;102598.91;;;21.34;37.21
58991;BME280;44781;53.444;14.476;2023-05-27T12:06:55;102598.83;;;21.42;37.27
58991;BME280;44781;53.444;14.476;2023-05-27T12:09:25;102589.89;;;21.53;36.94
58991;BME280;44781;53.444;14.476;2023-05-27T12:11:58;102583.45;;;21.67;36.67
58991;BME280;44781;53.444;14.476;2023-05-27T12:14:25;102584.34;;;21.80;36.78
58991;BME280;44781;53.444;14.476;2023-05-27T12:16:53;102583.86;;;21.94;37.04
58991;BME280;44781;53.444;14.476;2023-05-27T12:19:22;102576.73;;;22.08;36.69
58991;BME280;44781;53.444;14.476;2023-05-27T12:21:49;102569.92;;;22.21;36.41
58991;BME280;44781;53.444;14.476;2023-05-27T12:24:16;102562.65;;;22.31;35.80
58991;BME280;44781;53.444;14.476;2023-05-27T12:26:45;102562.87;;;22.38;35.31
58991;BME280;44781;53.444;14.476;2023-05-27T12:29:13;102565.91;;;22.48;35.31
58991;BME280;44781;53.444;14.476;2023-05-27T12:31:48;102565.58;;;22.60;35.55
58991;BME280;44781;53.444;14.476;2023-05-27T12:34:15;102558.15;;;22.71;35.38
58991;BME280;44781;53.444;14.476;2023-05-27T12:36:42;102554.27;;;22.81;35.33
58991;BME280;44781;53.444;14.476;2023-05-27T12:39:29;102551.52;;;22.96;35.49
58991;BME280;44781;53.444;14.476;2023-05-27T12:41:59;102549.48;;;23.10;35.20
58991;BME280;44781;53.444;14.476;2023-05-27T12:44:27;102553.73;;;23.23;35.08
58991;BME280;44781;53.444;14.476;2023-05-27T12:46:54;102549.10;;;23.33;34.92
58991;BME280;44781;53.444;14.476;2023-05-27T12:49:21;102547.08;;;23.42;34.82
58991;BME280;44781;53.444;14.476;2023-05-27T12:51:49;102543.64;;;23.51;34.49
58991;BME280;44781;53.444;14.476;2023-05-27T12:54:16;102539.38;;;23.61;34.34
58991;BME280;44781;53.444;14.476;2023-05-27T12:56:45;102542.34;;;23.71;34.08
58991;BME280;44781;53.444;14.476;2023-05-27T12:59:13;102535.42;;;23.80;34.22
58991;BME280;44781;53.444;14.476;2023-05-27T13:01:40;102531.48;;;23.92;34.25
58991;BME280;44781;53.444;14.476;2023-05-27T13:04:07;102528.55;;;24.02;33.72
58991;BME280;44781;53.444;14.476;2023-05-27T13:06:34;102526.56;;;24.13;33.58
58991;BME280;44781;53.444;14.476;2023-05-27T13:09:02;102528.39;;;24.24;33.46
58991;BME280;44781;53.444;14.476;2023-05-27T13:11:29;102526.30;;;24.37;33.54
58991;BME280;44781;53.444;14.476;2023-05-27T13:13:57;102526.17;;;24.50;33.38
58991;BME280;44781;53.444;14.476;2023-05-27T13:16:25;102521.34;;;24.63;33.36